createdAt,value
2023-03-25T00:00:24.655Z,100100.59
2023-03-25T00:02:53.534Z,100100.72
2023-03-25T00:05:23.133Z,100101.63
2023-03-25T00:07:53.319Z,100097.38
2023-03-25T00:10:22.424Z,100103.53
2023-03-25T00:12:50.147Z,100114.22
2023-03-25T00:15:18.024Z,100109.63
2023-03-25T00:17:46.167Z,100105.09
2023-03-25T00:20:14.510Z,100108.59
2023-03-25T00:22:44.267Z,100117.56
2023-03-25T00:25:17.267Z,100105.91
2023-03-25T00:27:48.767Z,100097.94
2023-03-25T00:30:17.740Z,100100.66
2023-03-25T00:32:49.997Z,100096.16
2023-03-25T00:35:19.362Z,100094.28
2023-03-25T00:37:48.070Z,100093.47
2023-03-25T00:40:15.948Z,100094.34
2023-03-25T00:42:44.896Z,100093.41
2023-03-25T00:45:14.055Z,100088.91
2023-03-25T00:47:42.282Z,100090.59
2023-03-25T00:50:11.014Z,100096.81
2023-03-25T00:52:38.812Z,100093.25
2023-03-25T00:55:09.258Z,100085.22
2023-03-25T00:57:37.260Z,100090.50
2023-03-25T01:00:07.948Z,100082.59
2023-03-25T01:02:39.495Z,100085.38
2023-03-25T01:05:09.184Z,100092.47
2023-03-25T01:07:37.432Z,100084.50
2023-03-25T01:10:06.429Z,100088.94
2023-03-25T01:12:34.376Z,100086.22
2023-03-25T01:15:02.130Z,100088.91
2023-03-25T01:17:29.910Z,100089.00
2023-03-25T01:19:59.179Z,100089.88
2023-03-25T01:22:26.921Z,100095.03
2023-03-25T01:24:54.590Z,100090.59
2023-03-25T01:27:24.524Z,100071.97
2023-03-25T01:29:54.555Z,100073.69
2023-03-25T01:32:22.369Z,100075.50
2023-03-25T01:34:50.141Z,100062.97
2023-03-25T01:37:19.351Z,100072.84
2023-03-25T01:39:47.097Z,100071.06
2023-03-25T01:42:14.858Z,100064.03
2023-03-25T01:45:25.106Z,100066.47
2023-03-25T01:48:01.259Z,100064.72
2023-03-25T01:50:30.197Z,100060.31
2023-03-25T01:53:02.701Z,100069.16
2023-03-25T01:55:33.305Z,100063.84
2023-03-25T01:58:02.969Z,100059.50
2023-03-25T02:00:30.787Z,100066.63
2023-03-25T02:03:00.215Z,100062.22
2023-03-25T02:05:35.952Z,100057.66
2023-03-25T02:08:09.155Z,100068.44
2023-03-25T02:10:38.343Z,100057.78
2023-03-25T02:13:07.776Z,100061.41
2023-03-25T02:15:49.594Z,100065.06
2023-03-25T02:18:34.836Z,100065.00
2023-03-25T02:21:46.421Z,100073.88
2023-03-25T02:24:46.824Z,100074.91
2023-03-25T02:27:28.436Z,100078.44
2023-03-25T02:30:10.466Z,100079.41
2023-03-25T02:33:30.874Z,100089.25
2023-03-25T02:36:30.796Z,100079.34
2023-03-25T02:39:04.207Z,100081.25
2023-03-25T02:41:40.720Z,100077.81
2023-03-25T02:44:14.730Z,100078.78
2023-03-25T02:46:47.972Z,100082.31
2023-03-25T02:49:21.845Z,100080.63
2023-03-25T02:51:55.587Z,100085.03
2023-03-25T02:54:26.381Z,100073.44
2023-03-25T02:56:57.571Z,100078.81
2023-03-25T02:59:33.164Z,100080.59
2023-03-25T03:02:04.173Z,100067.22
2023-03-25T03:04:32.009Z,100076.22
2023-03-25T03:06:59.829Z,100067.47
2023-03-25T03:09:39.949Z,100073.56
2023-03-25T03:12:20.816Z,100073.53
2023-03-25T03:15:07.977Z,100062.06
2023-03-25T03:17:43.927Z,100047.00
2023-03-25T03:20:21.027Z,100054.03
2023-03-25T03:22:55.294Z,100046.97
2023-03-25T03:25:32.017Z,100054.19
2023-03-25T03:28:06.184Z,100059.50
2023-03-25T03:30:42.557Z,100051.50
2023-03-25T03:33:15.809Z,100061.34
2023-03-25T03:35:50.340Z,100051.63
2023-03-25T03:38:22.099Z,100048.03
2023-03-25T03:40:54.212Z,100059.53
2023-03-25T03:43:27.778Z,100061.38
2023-03-25T03:46:00.877Z,100057.81
2023-03-25T03:48:33.307Z,100062.31
2023-03-25T03:51:03.172Z,100068.44
2023-03-25T03:53:35.933Z,100070.31
2023-03-25T03:56:09.184Z,100064.91
2023-03-25T03:58:41.882Z,100077.44
2023-03-25T04:01:12.691Z,100064.22
2023-03-25T04:03:45.280Z,100057.16
2023-03-25T04:06:21.453Z,100061.47
2023-03-25T04:08:58.984Z,100067.72
2023-03-25T04:11:34.252Z,100071.31
2023-03-25T04:14:03.956Z,100082.00
2023-03-25T04:16:34.650Z,100074.91
2023-03-25T04:19:03.965Z,100074.97
2023-03-25T04:21:31.814Z,100065.06
2023-03-25T04:24:01.428Z,100064.13
2023-03-25T04:26:34.306Z,100071.38
2023-03-25T04:29:02.219Z,100075.84
2023-03-25T04:31:31.346Z,100062.59
2023-03-25T04:34:00.468Z,100070.63
2023-03-25T04:36:29.752Z,100070.50
2023-03-25T04:38:57.556Z,100063.47
2023-03-25T04:41:25.738Z,100062.59
2023-03-25T04:43:54.876Z,100066.09
2023-03-25T04:46:22.653Z,100069.56
2023-03-25T04:48:50.632Z,100063.31
2023-03-25T04:51:18.378Z,100058.84
2023-03-25T04:53:46.293Z,100067.81
2023-03-25T04:56:17.574Z,100064.28
2023-03-25T04:58:46.203Z,100060.88
2023-03-25T05:01:23.922Z,100056.47
2023-03-25T05:03:51.897Z,100064.53
2023-03-25T05:06:19.707Z,100057.41
2023-03-25T05:08:47.407Z,100053.97
2023-03-25T05:11:15.189Z,100058.41
2023-03-25T05:13:43.004Z,100053.06
2023-03-25T05:16:10.808Z,100056.59
2023-03-25T05:18:39.987Z,100063.66
2023-03-25T05:21:08.491Z,100066.31
2023-03-25T05:23:36.434Z,100065.38
2023-03-25T05:26:04.552Z,100068.88
2023-03-25T05:28:32.307Z,100058.16
2023-03-25T05:31:00.080Z,100062.63
2023-03-25T05:33:27.805Z,100066.22
2023-03-25T05:35:57.402Z,100061.72
2023-03-25T05:38:25.576Z,100068.84
2023-03-25T05:40:53.559Z,100062.59
2023-03-25T05:43:22.797Z,100061.66
2023-03-25T05:45:51.110Z,100063.34
2023-03-25T05:48:19.245Z,100061.59
2023-03-25T05:50:47.035Z,100066.97
2023-03-25T05:53:16.599Z,100074.94
2023-03-25T05:55:44.368Z,100057.16
2023-03-25T05:58:12.159Z,100065.16
2023-03-25T06:00:39.940Z,100057.19
2023-03-25T06:03:08.818Z,100066.84
2023-03-25T06:05:36.789Z,100065.97
2023-03-25T06:08:04.538Z,100070.31
2023-03-25T06:10:34.426Z,100063.22
2023-03-25T06:13:02.277Z,100070.31
2023-03-25T06:15:33.774Z,100067.72
2023-03-25T06:18:01.908Z,100068.53
2023-03-25T06:20:29.707Z,100068.53
2023-03-25T06:22:57.417Z,100065.97
2023-03-25T06:25:26.712Z,100073.94
2023-03-25T06:27:58.010Z,100077.44
2023-03-25T06:30:25.766Z,100067.63
2023-03-25T06:32:55.959Z,100071.22
2023-03-25T06:35:23.987Z,100089.00
2023-03-25T06:37:51.888Z,100085.38
2023-03-25T06:40:20.077Z,100078.97
2023-03-25T06:42:47.842Z,100092.22
2023-03-25T06:45:17.210Z,100087.75
2023-03-25T06:47:45.170Z,100091.13
2023-03-25T06:50:12.930Z,100093.69
2023-03-25T06:52:40.697Z,100087.63
2023-03-25T06:55:09.479Z,100096.69
2023-03-25T06:57:37.824Z,100093.94
2023-03-25T07:00:07.071Z,100086.84
2023-03-25T07:02:36.261Z,100093.88
2023-03-25T07:05:04.405Z,100087.59
2023-03-25T07:07:32.366Z,100093.69
2023-03-25T07:10:00.318Z,100097.09
2023-03-25T07:12:28.115Z,100091.69
2023-03-25T07:14:57.293Z,100088.25
2023-03-25T07:17:25.449Z,100073.88
2023-03-25T07:19:54.680Z,100095.28
2023-03-25T07:22:22.416Z,100093.69
2023-03-25T07:24:52.169Z,100091.94
2023-03-25T07:27:20.521Z,100100.84
2023-03-25T07:29:48.294Z,100110.50
2023-03-25T07:32:16.088Z,100110.44
2023-03-25T07:34:43.838Z,100114.16
2023-03-25T07:37:12.997Z,100124.88
2023-03-25T07:39:40.828Z,100113.31
2023-03-25T07:42:08.642Z,100117.72
2023-03-25T07:44:36.654Z,100121.22
2023-03-25T07:47:04.702Z,100113.06
2023-03-25T07:49:32.368Z,100115.69
2023-03-25T07:52:00.302Z,100113.75
2023-03-25T07:54:29.486Z,100109.22
2023-03-25T07:56:57.614Z,100112.53
2023-03-25T07:59:26.553Z,100107.84
2023-03-25T08:01:55.949Z,100106.88
2023-03-25T08:04:23.797Z,100118.28
2023-03-25T08:06:51.771Z,100108.31
2023-03-25T08:09:19.558Z,100112.56
2023-03-25T08:11:49.511Z,100107.06
2023-03-25T08:14:17.313Z,100122.47
2023-03-25T08:16:45.335Z,100117.38
2023-03-25T08:19:13.175Z,100131.66
2023-03-25T08:21:41.282Z,100129.97
2023-03-25T08:24:11.297Z,100131.59
2023-03-25T08:26:39.754Z,100138.56
2023-03-25T08:29:10.077Z,100133.34
2023-03-25T08:31:38.947Z,100135.00
2023-03-25T08:34:07.204Z,100132.84
2023-03-25T08:36:39.466Z,100123.56
2023-03-25T08:39:11.661Z,100127.06
2023-03-25T08:41:39.898Z,100129.81
2023-03-25T08:44:09.235Z,100128.91
2023-03-25T08:46:37.622Z,100136.94
2023-03-25T08:49:06.417Z,100140.59
2023-03-25T08:51:35.605Z,100107.66
2023-03-25T08:54:03.454Z,100137.28
2023-03-25T08:56:31.250Z,100139.25
2023-03-25T08:58:58.968Z,100145.53
2023-03-25T09:01:28.112Z,100142.03
2023-03-25T09:03:57.792Z,100142.03
2023-03-25T09:06:26.098Z,100142.03
2023-03-25T09:08:55.985Z,100134.81
2023-03-25T09:11:34.184Z,100140.75
2023-03-25T09:14:04.989Z,100136.88
2023-03-25T09:16:35.046Z,100143.63
2023-03-25T09:19:02.909Z,100148.94
2023-03-25T09:21:30.822Z,100147.19
2023-03-25T09:23:58.549Z,100154.19
2023-03-25T09:26:26.476Z,100148.13
2023-03-25T09:28:55.583Z,100155.38
2023-03-25T09:31:23.548Z,100146.81
2023-03-25T09:33:52.807Z,100157.66
2023-03-25T09:36:20.756Z,100159.56
2023-03-25T09:38:48.543Z,100151.53
2023-03-25T09:41:39.798Z,100151.50
2023-03-25T09:44:18.425Z,100139.88
2023-03-25T09:46:46.873Z,100152.63
2023-03-25T09:49:20.101Z,100142.94
2023-03-25T09:51:50.632Z,100153.59
2023-03-25T09:54:26.297Z,100160.91
2023-03-25T09:56:56.658Z,100175.09
2023-03-25T09:59:32.453Z,100176.16
2023-03-25T10:02:08.034Z,100182.28
2023-03-25T10:04:56.326Z,100182.56
2023-03-25T10:07:41.257Z,100184.16
2023-03-25T10:10:17.980Z,100176.66
2023-03-25T10:12:50.385Z,100184.13
2023-03-25T10:15:31.031Z,100184.72
2023-03-25T10:18:11.357Z,100176.66
2023-03-25T10:20:52.213Z,100180.19
2023-03-25T10:23:29.523Z,100197.19
2023-03-25T10:26:02.260Z,100202.78
2023-03-25T10:28:36.112Z,100187.91
2023-03-25T10:31:05.512Z,100182.66
2023-03-25T10:33:37.216Z,100181.19
2023-03-25T10:36:13.259Z,100193.88
2023-03-25T10:38:43.669Z,100180.59
2023-03-25T10:41:21.392Z,100185.06
2023-03-25T10:43:49.328Z,100181.47
2023-03-25T10:46:26.152Z,100183.25
2023-03-25T10:48:54.101Z,100191.34
2023-03-25T10:51:31.353Z,100202.91
2023-03-25T10:54:00.116Z,100205.63
2023-03-25T10:56:32.668Z,100189.38
2023-03-25T10:59:08.754Z,100194.66
2023-03-25T11:01:39.578Z,100185.44
2023-03-25T11:04:10.713Z,100186.16
2023-03-25T11:06:42.801Z,100186.31
2023-03-25T11:09:18.222Z,100187.13
2023-03-25T11:11:47.450Z,100190.72
2023-03-25T11:14:16.660Z,100190.69
2023-03-25T11:16:47.926Z,100189.66
2023-03-25T11:19:23.880Z,100188.63
2023-03-25T11:21:58.398Z,100178.38
2023-03-25T11:24:32.762Z,100168.75
2023-03-25T11:27:02.863Z,100163.56
2023-03-25T11:29:33.123Z,100173.75
2023-03-25T11:32:08.503Z,100178.91
2023-03-25T11:34:41.945Z,100162.88
2023-03-25T11:37:19.837Z,100166.38
2023-03-25T11:39:55.102Z,100158.06
2023-03-25T11:42:33.073Z,100158.84
2023-03-25T11:45:03.490Z,100151.28
2023-03-25T11:47:34.091Z,100149.03
2023-03-25T11:50:03.072Z,100139.41
2023-03-25T11:52:39.186Z,100140.44
2023-03-25T11:55:07.805Z,100140.19
2023-03-25T11:57:41.328Z,100159.91
2023-03-25T12:00:24.128Z,100151.78
2023-03-25T12:03:01.175Z,100141.66
2023-03-25T12:05:30.266Z,100147.91
2023-03-25T12:08:15.084Z,100148.09
2023-03-25T12:10:53.315Z,100138.72
2023-03-25T12:13:34.307Z,100140.53
2023-03-25T12:16:16.231Z,100158.56
2023-03-25T12:19:03.267Z,100153.41
2023-03-25T12:21:44.568Z,100149.88
2023-03-25T12:24:29.134Z,100148.44
2023-03-25T12:27:12.108Z,100151.72
2023-03-25T12:29:48.962Z,100149.34
2023-03-25T12:32:29.265Z,100158.06
2023-03-25T12:35:14.573Z,100154.34
2023-03-25T12:38:01.993Z,100150.34
2023-03-25T12:40:44.565Z,100158.53
2023-03-25T12:43:16.971Z,100137.69
2023-03-25T12:45:58.861Z,100130.63
2023-03-25T12:48:49.045Z,100133.63
2023-03-25T12:51:24.676Z,100126.09
2023-03-25T12:54:01.205Z,100129.06
2023-03-25T12:56:52.634Z,100139.84
2023-03-25T12:59:38.262Z,100130.09
2023-03-25T13:02:16.899Z,100139.97
2023-03-25T13:05:06.172Z,100153.59
2023-03-25T13:07:38.029Z,100138.75
2023-03-25T13:10:14.624Z,100163.91
2023-03-25T13:12:49.625Z,100155.09
2023-03-25T13:15:26.944Z,100144.94
2023-03-25T13:17:59.971Z,100153.16
2023-03-25T13:20:31.331Z,100164.97
2023-03-25T13:23:02.404Z,100170.78
2023-03-25T13:25:36.646Z,100149.50
2023-03-25T13:28:11.385Z,100163.84
2023-03-25T13:30:42.252Z,100163.19
2023-03-25T13:33:16.672Z,100177.34
2023-03-25T13:35:48.562Z,100173.88
2023-03-25T13:38:21.066Z,100170.09
2023-03-25T13:40:53.455Z,100187.59
2023-03-25T13:43:30.270Z,100204.63
2023-03-25T13:46:03.802Z,100177.59
2023-03-25T13:48:40.550Z,100200.28
2023-03-25T13:51:09.388Z,100191.31
2023-03-25T13:53:41.610Z,100182.88
2023-03-25T13:56:41.547Z,100172.25
2023-03-25T13:59:31.190Z,100181.97
2023-03-25T14:02:33.599Z,100188.63
2023-03-25T14:05:46.586Z,100182.16
2023-03-25T14:08:52.926Z,100188.38
2023-03-25T14:11:26.457Z,100176.59
2023-03-25T14:13:58.263Z,100196.13
2023-03-25T14:16:33.351Z,100178.94
2023-03-25T14:19:04.906Z,100196.69
2023-03-25T14:21:41.560Z,100201.34
2023-03-25T14:24:14.941Z,100205.63
2023-03-25T14:26:48.041Z,100211.13
2023-03-25T14:29:24.985Z,100203.66
2023-03-25T14:32:07.395Z,100203.66
2023-03-25T14:34:35.850Z,100200.16
2023-03-25T14:37:19.221Z,100195.28
2023-03-25T14:39:47.086Z,100202.91
2023-03-25T14:42:31.095Z,100194.00
2023-03-25T14:45:42.203Z,100202.97
2023-03-25T14:48:30.610Z,100208.44
2023-03-25T14:51:22.902Z,100210.34
2023-03-25T14:53:55.816Z,100208.84
2023-03-25T14:56:26.785Z,100208.59
2023-03-25T14:58:59.250Z,100213.88
2023-03-25T15:01:31.312Z,100219.91
2023-03-25T15:04:18.142Z,100206.44
2023-03-25T15:06:49.207Z,100204.63
2023-03-25T15:09:19.639Z,100204.72
2023-03-25T15:11:57.212Z,100202.81
2023-03-25T15:14:30.391Z,100187.94
2023-03-25T15:17:13.797Z,100195.09
2023-03-25T15:20:15.821Z,100188.91
2023-03-25T15:22:43.720Z,100190.19
2023-03-25T15:25:16.905Z,100179.56
2023-03-25T15:28:05.953Z,100183.00
2023-03-25T15:30:58.572Z,100187.38
2023-03-25T15:33:47.495Z,100177.41
2023-03-25T15:36:43.526Z,100185.41
2023-03-25T15:39:35.805Z,100194.09
2023-03-25T15:42:23.403Z,100190.41
2023-03-25T15:45:12.559Z,100188.78
2023-03-25T15:47:54.981Z,100188.78
2023-03-25T15:50:39.021Z,100190.53
2023-03-25T15:53:42.791Z,100178.91
2023-03-25T15:56:14.710Z,100204.66
2023-03-25T15:58:51.137Z,100206.72
2023-03-25T16:01:25.885Z,100192.50
2023-03-25T16:04:00.674Z,100195.13
2023-03-25T16:06:29.629Z,100203.19
2023-03-25T16:09:00.454Z,100205.19
2023-03-25T16:11:29.536Z,100187.38
2023-03-25T16:14:08.356Z,100205.31
2023-03-25T16:16:39.694Z,100203.44
2023-03-25T16:19:12.832Z,100206.25
2023-03-25T16:21:41.294Z,100210.63
2023-03-25T16:24:13.908Z,100212.50
2023-03-25T16:26:44.232Z,100216.03
2023-03-25T16:29:19.287Z,100219.59
2023-03-25T16:31:56.554Z,100216.91
2023-03-25T16:34:25.298Z,100219.72
2023-03-25T16:36:54.187Z,100226.72
2023-03-25T16:39:26.066Z,100223.38
2023-03-25T16:42:02.292Z,100231.44
2023-03-25T16:44:30.495Z,100231.31
2023-03-25T16:46:58.643Z,100239.34
2023-03-25T16:49:32.516Z,100241.06
2023-03-25T16:52:04.829Z,100224.03
2023-03-25T16:54:38.063Z,100232.91
2023-03-25T16:57:08.740Z,100231.09
2023-03-25T16:59:39.110Z,100230.25
2023-03-25T17:02:26.776Z,100235.91
2023-03-25T17:04:58.218Z,100230.44
2023-03-25T17:07:29.632Z,100240.09
2023-03-25T17:10:00.657Z,100243.66
2023-03-25T17:12:30.673Z,100242.75
2023-03-25T17:15:07.033Z,100238.41
2023-03-25T17:17:41.765Z,100240.13
2023-03-25T17:20:20.330Z,100266.94
2023-03-25T17:23:04.195Z,100243.84
2023-03-25T17:25:37.030Z,100258.94
2023-03-25T17:28:29.353Z,100275.94
2023-03-25T17:30:57.949Z,100281.31
2023-03-25T17:33:35.413Z,100283.16
2023-03-25T17:36:04.938Z,100274.38
2023-03-25T17:38:36.708Z,100288.72
2023-03-25T17:41:08.010Z,100297.75
2023-03-25T17:43:37.963Z,100289.91
2023-03-25T17:46:07.834Z,100287.38
2023-03-25T17:48:36.705Z,100299.00
2023-03-25T17:51:29.615Z,100299.03
2023-03-25T17:54:06.686Z,100294.72
2023-03-25T17:56:38.497Z,100309.00
2023-03-25T17:59:09.197Z,100310.94
2023-03-25T18:01:37.694Z,100315.53
2023-03-25T18:04:06.219Z,100323.59
2023-03-25T18:06:34.019Z,100317.31
2023-03-25T18:09:07.056Z,100320.16
2023-03-25T18:11:36.332Z,100313.00
2023-03-25T18:14:04.441Z,100325.66
2023-03-25T18:16:32.385Z,100335.41
2023-03-25T18:19:00.591Z,100334.53
2023-03-25T18:21:33.007Z,100332.88
2023-03-25T18:24:01.451Z,100344.50
2023-03-25T18:26:29.585Z,100344.44
2023-03-25T18:28:58.756Z,100340.16
2023-03-25T18:31:26.702Z,100349.09
2023-03-25T18:33:55.797Z,100341.16
2023-03-25T18:36:23.880Z,100350.91
2023-03-25T18:38:52.079Z,100354.63
2023-03-25T18:41:21.747Z,100348.34
2023-03-25T18:43:49.469Z,100353.53
2023-03-25T18:46:22.945Z,100353.63
2023-03-25T18:48:50.856Z,100352.81
2023-03-25T18:51:18.728Z,100362.50
2023-03-25T18:53:47.327Z,100363.53
2023-03-25T18:56:15.180Z,100359.97
2023-03-25T18:58:43.889Z,100359.06
2023-03-25T19:01:15.616Z,100350.16
2023-03-25T19:03:45.472Z,100347.53
2023-03-25T19:06:14.633Z,100353.97
2023-03-25T19:08:44.446Z,100348.75
2023-03-25T19:11:21.181Z,100344.34
2023-03-25T19:13:50.589Z,100343.47
2023-03-25T19:16:18.480Z,100366.66
2023-03-25T19:18:48.067Z,100361.44
2023-03-25T19:21:17.631Z,100382.75
2023-03-25T19:23:45.669Z,100406.81
2023-03-25T19:26:13.565Z,100435.38
2023-03-25T19:28:46.677Z,100433.81
2023-03-25T19:31:16.496Z,100411.28
2023-03-25T19:33:44.421Z,100417.38
2023-03-25T19:36:18.916Z,100437.19
2023-03-25T19:38:47.005Z,100455.19
2023-03-25T19:41:16.663Z,100441.91
2023-03-25T19:43:44.648Z,100439.34
2023-03-25T19:46:12.891Z,100464.50
2023-03-25T19:48:40.888Z,100440.56
2023-03-25T19:51:08.595Z,100438.00
2023-03-25T19:53:37.927Z,100430.84
2023-03-25T19:56:06.693Z,100418.28
2023-03-25T19:58:35.558Z,100418.28
2023-03-25T20:01:03.375Z,100412.81
2023-03-25T20:03:33.080Z,100418.97
2023-03-25T20:06:02.865Z,100426.00
2023-03-25T20:08:31.898Z,100431.38
2023-03-25T20:11:01.508Z,100414.41
2023-03-25T20:13:29.357Z,100418.84
2023-03-25T20:15:57.251Z,100417.16
2023-03-25T20:18:25.093Z,100425.25
2023-03-25T20:20:52.905Z,100424.41
2023-03-25T20:23:20.641Z,100427.97
2023-03-25T20:25:48.399Z,100435.94
2023-03-25T20:28:18.522Z,100437.72
2023-03-25T20:30:46.591Z,100437.69
2023-03-25T20:33:14.446Z,100438.63
2023-03-25T20:35:43.927Z,100439.53
2023-03-25T20:38:14.198Z,100441.38
2023-03-25T20:40:46.078Z,100447.69
2023-03-25T20:43:15.128Z,100452.13
2023-03-25T20:45:44.716Z,100451.25
2023-03-25T20:48:12.596Z,100441.44
2023-03-25T20:50:40.690Z,100441.56
2023-03-25T20:53:08.895Z,100443.38
2023-03-25T20:55:37.293Z,100439.03
2023-03-25T20:58:05.770Z,100443.59
2023-03-25T21:00:34.295Z,100457.06
2023-03-25T21:03:03.818Z,100465.13
2023-03-25T21:05:31.633Z,100462.47
2023-03-25T21:07:59.439Z,100454.47
2023-03-25T21:10:27.265Z,100444.69
2023-03-25T21:12:55.079Z,100456.34
2023-03-25T21:15:22.841Z,100459.06
2023-03-25T21:17:50.888Z,100467.09
2023-03-25T21:20:22.914Z,100490.19
2023-03-25T21:22:52.879Z,100482.22
2023-03-25T21:25:20.976Z,100478.66
2023-03-25T21:27:52.446Z,100474.28
2023-03-25T21:30:20.187Z,100465.34
2023-03-25T21:32:47.951Z,100464.38
2023-03-25T21:38:01.029Z,100470.63
2023-03-25T21:40:39.978Z,100472.41
2023-03-25T21:43:08.015Z,100479.56
2023-03-25T21:45:35.812Z,100482.28
2023-03-25T21:48:05.112Z,100480.53
2023-03-25T21:50:34.281Z,100486.72
2023-03-25T21:53:05.626Z,100493.81
2023-03-25T21:55:35.664Z,100489.34
2023-03-25T21:58:03.380Z,100494.66
2023-03-25T22:00:31.127Z,100494.69
2023-03-25T22:02:58.930Z,100496.47
2023-03-25T22:05:31.148Z,100500.00
2023-03-25T22:07:59.725Z,100500.00
2023-03-25T22:10:28.825Z,100494.66
2023-03-25T22:12:56.720Z,100493.72
2023-03-25T22:15:24.449Z,100488.38
2023-03-25T22:17:52.238Z,100483.91
2023-03-25T22:20:20.525Z,100489.19
2023-03-25T22:22:48.420Z,100498.13
2023-03-25T22:25:16.183Z,100507.00
2023-03-25T22:27:47.799Z,100503.44
2023-03-25T22:30:16.732Z,100507.91
2023-03-25T22:32:44.410Z,100511.50
2023-03-25T22:35:14.126Z,100507.13
2023-03-25T22:37:41.972Z,100508.97
2023-03-25T22:40:11.823Z,100512.56
2023-03-25T22:42:39.607Z,100505.53
2023-03-25T22:45:09.711Z,100515.31
2023-03-25T22:47:37.801Z,100514.41
2023-03-25T22:50:06.600Z,100518.84
2023-03-25T22:52:34.459Z,100517.97
2023-03-25T22:55:02.259Z,100525.06
2023-03-25T22:57:30.088Z,100519.75
2023-03-25T22:59:57.852Z,100520.56
2023-03-25T23:02:27.173Z,100527.66
2023-03-25T23:04:56.469Z,100537.41
2023-03-25T23:07:24.160Z,100525.84
2023-03-25T23:09:51.880Z,100528.50
2023-03-25T23:12:23.936Z,100524.94
2023-03-25T23:14:54.342Z,100524.00
2023-03-25T23:17:22.860Z,100522.25
2023-03-25T23:19:52.516Z,100534.69
2023-03-25T23:22:21.169Z,100538.25
2023-03-25T23:24:48.935Z,100541.81
2023-03-25T23:27:16.641Z,100526.72
2023-03-25T23:29:44.858Z,100530.28
2023-03-25T23:32:16.419Z,100533.88
2023-03-25T23:34:45.272Z,100533.88
2023-03-25T23:37:15.089Z,100543.63
2023-03-25T23:39:46.098Z,100541.88
2023-03-25T23:42:13.781Z,100540.97
2023-03-25T23:44:41.759Z,100543.63
2023-03-25T23:47:09.560Z,100540.06
2023-03-25T23:49:38.600Z,100544.47
2023-03-25T23:52:11.266Z,100540.03
2023-03-25T23:54:41.522Z,100540.88
2023-03-25T23:57:09.294Z,100543.50
2023-03-25T23:59:37.011Z,100539.91
